createdAt,value
2022-12-18T00:00:03.406Z,68.41
2022-12-18T00:05:16.616Z,67.97
2022-12-18T00:10:22.177Z,68.11
2022-12-18T00:15:26.393Z,67.79
2022-12-18T00:20:29.533Z,68.15
2022-12-18T00:25:34.872Z,68.04
2022-12-18T00:30:39.145Z,67.89
2022-12-18T00:35:42.044Z,67.75
2022-12-18T00:40:46.650Z,67.51
2022-12-18T00:45:50.973Z,67.55
2022-12-18T00:50:54.098Z,68.15
2022-12-18T00:55:57.163Z,67.59
2022-12-18T01:01:01.561Z,67.99
2022-12-18T01:06:08.183Z,67.99
2022-12-18T01:11:13.083Z,67.96
2022-12-18T01:16:20.117Z,67.81
2022-12-18T01:21:24.539Z,67.66
2022-12-18T01:26:30.399Z,68.03
2022-12-18T01:31:36.308Z,67.73
2022-12-18T01:36:40.922Z,67.51
2022-12-18T01:42:02.229Z,67.83
2022-12-18T01:47:06.971Z,68.08
2022-12-18T01:52:09.991Z,68.01
2022-12-18T01:57:13.511Z,68.20
2022-12-18T02:02:19.102Z,67.86
2022-12-18T02:07:33.517Z,67.46
2022-12-18T02:12:47.118Z,67.82
2022-12-18T02:17:57.311Z,67.83
2022-12-18T02:23:11.852Z,67.69
2022-12-18T02:28:18.798Z,67.69
2022-12-18T02:33:28.261Z,67.79
2022-12-18T02:38:34.786Z,67.80
2022-12-18T02:43:52.463Z,68.09
2022-12-18T02:49:03.539Z,67.98
2022-12-18T02:54:15.792Z,68.05
2022-12-18T02:59:26.500Z,67.69
2022-12-18T03:04:40.373Z,67.90
2022-12-18T03:09:50.514Z,67.44
2022-12-18T03:15:00.474Z,67.82
2022-12-18T03:20:09.541Z,67.89
2022-12-18T03:25:16.806Z,68.14
2022-12-18T03:30:21.597Z,68.28
2022-12-18T03:35:30.628Z,68.37
2022-12-18T03:40:47.122Z,68.44
2022-12-18T03:46:00.474Z,68.25
2022-12-18T03:51:10.264Z,68.06
2022-12-18T03:56:15.889Z,68.30
2022-12-18T04:01:26.090Z,67.74
2022-12-18T04:06:31.387Z,67.60
2022-12-18T04:11:34.459Z,67.37
2022-12-18T04:16:41.416Z,67.31
2022-12-18T04:21:51.242Z,67.94
2022-12-18T04:26:54.454Z,68.47
2022-12-18T04:32:05.193Z,67.89
2022-12-18T04:37:09.494Z,68.29
2022-12-18T04:42:12.510Z,67.86
2022-12-18T04:47:16.728Z,68.20
2022-12-18T04:52:19.562Z,68.21
2022-12-18T04:57:22.393Z,68.10
2022-12-18T05:02:26.690Z,68.07
2022-12-18T05:07:29.569Z,68.04
2022-12-18T05:12:33.698Z,67.80
2022-12-18T05:17:37.911Z,67.98
2022-12-18T05:22:40.740Z,67.93
2022-12-18T05:27:43.736Z,68.04
2022-12-18T05:32:47.914Z,68.21
2022-12-18T05:37:50.744Z,67.94
2022-12-18T05:42:53.586Z,68.36
2022-12-18T05:47:57.989Z,68.37
2022-12-18T05:53:00.845Z,68.89
2022-12-18T05:58:04.128Z,69.13
2022-12-18T06:03:08.994Z,69.01
2022-12-18T06:08:12.710Z,68.74
2022-12-18T06:13:15.546Z,68.96
2022-12-18T06:18:19.663Z,68.22
2022-12-18T06:23:22.468Z,68.54
2022-12-18T06:28:25.316Z,69.01
2022-12-18T06:33:30.293Z,69.06
2022-12-18T06:38:33.718Z,69.15
2022-12-18T06:43:37.016Z,69.20
2022-12-18T06:48:41.796Z,68.89
2022-12-18T06:53:44.610Z,68.64
2022-12-18T06:58:47.474Z,68.38
2022-12-18T07:03:55.739Z,68.07
2022-12-18T07:08:58.653Z,68.31
2022-12-18T07:14:01.687Z,68.08
2022-12-18T07:19:05.853Z,68.57
2022-12-18T07:24:09.429Z,68.87
2022-12-18T07:29:12.230Z,68.93
2022-12-18T07:34:17.059Z,69.07
2022-12-18T07:39:19.888Z,69.59
2022-12-18T07:44:22.755Z,71.63
2022-12-18T07:49:27.022Z,70.05
2022-12-18T07:54:30.441Z,67.40
2022-12-18T07:59:33.263Z,67.17
2022-12-18T08:04:37.523Z,64.97
2022-12-18T08:09:40.327Z,64.51
2022-12-18T08:14:43.198Z,64.53
2022-12-18T08:19:47.391Z,63.39
2022-12-18T08:24:50.186Z,63.04
2022-12-18T08:29:53.185Z,62.83
2022-12-18T08:34:57.471Z,62.44
2022-12-18T08:40:00.297Z,61.78
2022-12-18T08:45:03.224Z,60.92
2022-12-18T08:50:08.247Z,59.44
2022-12-18T08:55:11.746Z,59.69
2022-12-18T09:00:15.764Z,59.86
2022-12-18T09:05:20.975Z,59.70
2022-12-18T09:10:24.157Z,59.27
2022-12-18T09:15:27.128Z,59.21
2022-12-18T09:20:31.400Z,60.10
2022-12-18T09:25:36.785Z,59.73
2022-12-18T09:30:40.099Z,60.03
2022-12-18T09:35:45.911Z,60.15
2022-12-18T09:40:51.190Z,61.11
2022-12-18T09:45:57.376Z,61.00
2022-12-18T09:51:05.805Z,59.97
2022-12-18T09:56:14.384Z,58.19
2022-12-18T10:01:22.224Z,56.30
2022-12-18T10:06:40.033Z,54.71
2022-12-18T10:11:50.109Z,55.43
2022-12-18T10:17:01.879Z,56.71
2022-12-18T10:22:18.421Z,55.74
2022-12-18T10:27:28.009Z,55.17
2022-12-18T10:32:32.157Z,55.64
2022-12-18T10:37:36.439Z,55.90
2022-12-18T10:42:40.665Z,54.99
2022-12-18T10:47:45.707Z,54.21
2022-12-18T10:52:57.359Z,53.17
2022-12-18T10:58:22.185Z,52.33
2022-12-18T11:03:34.056Z,51.76
2022-12-18T11:08:39.303Z,52.05
2022-12-18T11:13:42.586Z,51.64
2022-12-18T11:18:45.462Z,52.32
2022-12-18T11:23:52.868Z,53.58
2022-12-18T11:29:11.167Z,53.80
2022-12-18T11:34:30.275Z,53.89
2022-12-18T11:39:39.602Z,53.44
2022-12-18T11:44:49.535Z,53.54
2022-12-18T11:49:53.272Z,54.39
2022-12-18T11:55:01.819Z,56.09
2022-12-18T12:00:13.216Z,56.65
2022-12-18T12:05:30.735Z,55.93
2022-12-18T12:10:46.156Z,55.49
2022-12-18T12:16:01.368Z,56.07
2022-12-18T12:21:10.092Z,55.99
2022-12-18T12:26:23.422Z,55.84
2022-12-18T12:31:40.363Z,57.08
2022-12-18T12:36:54.598Z,56.51
2022-12-18T12:42:17.245Z,56.11
2022-12-18T12:47:26.139Z,56.25
2022-12-18T12:52:34.434Z,56.28
2022-12-18T12:57:42.037Z,57.01
2022-12-18T13:02:53.355Z,56.98
2022-12-18T13:08:04.676Z,56.76
2022-12-18T13:13:13.422Z,57.36
2022-12-18T13:18:23.527Z,57.73
2022-12-18T13:23:40.994Z,57.17
2022-12-18T13:28:56.174Z,57.50
2022-12-18T13:34:26.089Z,57.56
2022-12-18T13:39:35.950Z,57.46
2022-12-18T13:44:43.067Z,57.78
2022-12-18T13:49:46.437Z,57.42
2022-12-18T13:54:54.496Z,57.51
2022-12-18T14:00:18.189Z,56.65
2022-12-18T14:05:24.687Z,56.75
2022-12-18T14:10:48.699Z,56.72
2022-12-18T14:15:52.712Z,57.00
2022-12-18T14:21:00.995Z,56.69
2022-12-18T14:26:06.409Z,56.77
2022-12-18T14:31:20.404Z,56.46
2022-12-18T14:36:25.668Z,56.62
2022-12-18T14:41:29.759Z,56.72
2022-12-18T14:46:37.725Z,57.09
2022-12-18T14:51:40.694Z,56.51
2022-12-18T14:56:47.006Z,56.33
2022-12-18T15:01:59.147Z,56.42
2022-12-18T15:07:13.434Z,55.97
2022-12-18T15:12:27.949Z,55.49
2022-12-18T15:17:32.274Z,55.55
2022-12-18T15:22:37.492Z,55.72
2022-12-18T15:27:40.463Z,55.81
2022-12-18T15:32:48.664Z,55.52
2022-12-18T15:37:52.955Z,55.79
2022-12-18T15:43:15.022Z,55.35
2022-12-18T15:48:24.048Z,55.40
2022-12-18T15:53:30.025Z,55.60
2022-12-18T15:58:33.776Z,55.74
2022-12-18T16:03:38.628Z,55.16
2022-12-18T16:08:43.009Z,55.50
2022-12-18T16:13:45.790Z,55.31
2022-12-18T16:18:50.195Z,55.48
2022-12-18T16:23:53.005Z,55.46
2022-12-18T16:28:56.432Z,55.41
2022-12-18T16:34:20.336Z,56.26
2022-12-18T16:39:25.510Z,55.87
2022-12-18T16:44:29.542Z,55.57
2022-12-18T16:49:33.854Z,55.23
2022-12-18T16:54:36.908Z,55.93
2022-12-18T16:59:39.750Z,55.70
2022-12-18T17:04:45.246Z,55.53
2022-12-18T17:09:48.833Z,56.02
2022-12-18T17:14:51.866Z,55.53
2022-12-18T17:19:56.723Z,55.68
2022-12-18T17:24:59.589Z,55.23
2022-12-18T17:30:02.505Z,55.41
2022-12-18T17:35:07.580Z,55.22
2022-12-18T17:40:12.088Z,54.77
2022-12-18T17:45:15.075Z,54.96
2022-12-18T17:50:19.482Z,55.17
2022-12-18T17:55:22.306Z,54.51
2022-12-18T18:00:25.384Z,54.14
2022-12-18T18:05:29.699Z,53.98
2022-12-18T18:10:33.281Z,53.69
2022-12-18T18:15:40.639Z,54.44
2022-12-18T18:20:45.140Z,54.72
2022-12-18T18:25:52.253Z,54.62
2022-12-18T18:30:56.444Z,54.81
2022-12-18T18:36:00.920Z,54.84
2022-12-18T18:41:05.193Z,54.72
2022-12-18T18:46:08.267Z,55.07
2022-12-18T18:51:14.680Z,55.53
2022-12-18T19:01:50.464Z,55.62
2022-12-18T19:06:54.817Z,55.13
2022-12-18T19:12:16.598Z,55.51
2022-12-18T19:17:20.489Z,55.09
2022-12-18T19:22:26.985Z,55.84
2022-12-18T19:27:29.818Z,55.62
2022-12-18T19:32:32.856Z,56.36
2022-12-18T19:37:37.085Z,57.52
2022-12-18T19:42:39.899Z,57.66
2022-12-18T19:47:42.702Z,58.13
2022-12-18T19:52:46.948Z,59.05
2022-12-18T19:57:49.917Z,58.98
2022-12-18T20:02:54.296Z,58.88
2022-12-18T20:08:02.661Z,58.45
2022-12-18T20:13:06.458Z,58.32
2022-12-18T20:18:10.260Z,59.19
2022-12-18T20:23:14.588Z,60.29
2022-12-18T20:28:17.430Z,61.27
2022-12-18T20:33:20.238Z,61.31
2022-12-18T20:38:24.416Z,61.06
2022-12-18T20:43:27.637Z,61.07
2022-12-18T20:48:31.450Z,61.12
2022-12-18T20:53:36.698Z,62.08
2022-12-18T20:58:41.569Z,61.98
2022-12-18T21:03:45.973Z,62.08
2022-12-18T21:08:50.615Z,61.85
2022-12-18T21:13:53.491Z,62.40
2022-12-18T21:18:56.565Z,62.56
2022-12-18T21:24:01.945Z,61.71
2022-12-18T21:29:06.482Z,62.14
2022-12-18T21:34:11.613Z,62.14
2022-12-18T21:39:16.824Z,62.42
2022-12-18T21:44:20.324Z,62.92
2022-12-18T21:49:24.266Z,62.49
2022-12-18T21:54:30.410Z,62.46
2022-12-18T21:59:36.107Z,61.81
2022-12-18T22:04:38.921Z,62.23
2022-12-18T22:09:43.934Z,62.13
2022-12-18T22:14:46.809Z,62.18
2022-12-18T22:19:50.427Z,62.31
2022-12-18T22:24:55.125Z,62.48
2022-12-18T22:30:07.085Z,62.55
2022-12-18T22:35:15.584Z,62.64
2022-12-18T22:40:28.547Z,62.42
2022-12-18T22:45:31.596Z,62.54
2022-12-18T22:50:36.601Z,63.08
2022-12-18T22:55:40.859Z,63.06
2022-12-18T23:00:43.718Z,63.61
2022-12-18T23:05:47.777Z,63.82
2022-12-18T23:10:54.494Z,65.37
2022-12-18T23:15:57.435Z,66.59
2022-12-18T23:21:05.549Z,67.75
2022-12-18T23:26:12.117Z,68.50
2022-12-18T23:31:16.961Z,68.97
2022-12-18T23:36:21.080Z,69.37
2022-12-18T23:41:27.266Z,70.13
2022-12-18T23:46:32.222Z,70.41
2022-12-18T23:51:38.247Z,70.76
2022-12-18T23:56:43.885Z,71.14
